createdAt,value
2019-04-20T05:47:12.315Z,6.38
2019-04-20T05:50:16.591Z,6.46
2019-04-20T05:53:30.545Z,6.56
2019-04-20T05:56:37.293Z,6.69
2019-04-20T05:59:46.940Z,6.84
2019-04-20T06:02:44.110Z,7.02
2019-04-20T06:05:59.260Z,7.19
2019-04-20T06:09:03.378Z,7.39
2019-04-20T06:12:14.443Z,7.63
2019-04-20T06:15:15.491Z,7.78
2019-04-20T06:18:35.497Z,7.94
2019-04-20T06:22:29.722Z,8.09
2019-04-20T06:25:44.323Z,8.18
2019-04-20T06:28:30.096Z,8.34
2019-04-20T06:31:42.251Z,8.72
2019-04-20T06:34:49.023Z,8.85
2019-04-20T06:38:07.122Z,8.86
2019-04-20T06:44:08.814Z,9.10
2019-04-20T06:50:15.000Z,9.40
2019-04-20T06:53:47.076Z,9.60
2019-04-20T06:56:54.445Z,9.72
2019-04-20T07:00:00.807Z,9.83
2019-04-20T07:02:58.967Z,9.95
2019-04-20T07:06:29.351Z,10.08
2019-04-20T07:09:35.380Z,10.27
2019-04-20T07:12:17.040Z,10.34
2019-04-20T07:15:22.674Z,10.67
2019-04-20T07:18:40.118Z,10.73
2019-04-20T07:22:14.956Z,10.88
2019-04-20T07:25:01.837Z,10.99
2019-04-20T07:28:15.646Z,11.19
2019-04-20T07:31:15.847Z,11.24
2019-04-20T07:34:23.381Z,11.36
2019-04-20T07:40:39.741Z,11.78
2019-04-20T07:44:01.648Z,11.99
2019-04-20T07:47:01.558Z,12.35
2019-04-20T07:49:55.424Z,12.36
2019-04-20T07:52:58.805Z,12.43
2019-04-20T07:56:11.463Z,12.63
2019-04-20T07:59:09.715Z,12.92
2019-04-20T08:02:40.832Z,12.94
2019-04-20T08:05:42.010Z,13.22
2019-04-20T08:08:48.994Z,13.42
2019-04-20T08:12:03.233Z,13.49
2019-04-20T08:15:13.355Z,13.53
2019-04-20T08:18:07.640Z,13.67
2019-04-20T08:21:16.706Z,14.05
2019-04-20T08:24:17.597Z,13.95
2019-04-20T08:27:13.193Z,14.20
2019-04-20T08:30:41.385Z,14.39
2019-04-20T08:34:04.839Z,14.43
2019-04-20T08:36:57.134Z,14.61
2019-04-20T08:40:07.677Z,15.00
2019-04-20T08:43:51.677Z,14.99
2019-04-20T08:46:53.662Z,15.06
2019-04-20T08:50:16.773Z,15.03
2019-04-20T08:53:33.509Z,15.12
2019-04-20T08:56:22.132Z,15.40
2019-04-20T08:59:14.941Z,15.66
2019-04-20T09:03:28.909Z,15.71
2019-04-20T09:06:49.073Z,15.75
2019-04-20T09:10:12.308Z,16.22
2019-04-20T09:13:03.966Z,16.03
2019-04-20T09:15:55.550Z,16.11
2019-04-20T09:19:06.926Z,16.28
2019-04-20T09:22:32.532Z,16.19
2019-04-20T09:28:54.332Z,16.55
2019-04-20T09:32:11.176Z,16.44
2019-04-20T09:35:17.418Z,16.39
2019-04-20T09:38:14.441Z,16.71
2019-04-20T09:41:34.911Z,16.69
2019-04-20T09:44:15.616Z,16.72
2019-04-20T09:47:27.440Z,16.73
2019-04-20T09:50:43.792Z,16.74
2019-04-20T09:53:44.281Z,16.81
2019-04-20T09:56:59.250Z,16.84
2019-04-20T10:00:04.216Z,17.02
2019-04-20T10:02:48.934Z,17.02
2019-04-20T10:05:53.764Z,17.05
2019-04-20T10:09:00.461Z,17.07
2019-04-20T10:12:03.806Z,17.00
2019-04-20T10:15:13.809Z,16.97
2019-04-20T10:18:14.177Z,16.99
2019-04-20T10:21:18.080Z,17.12
2019-04-20T10:24:22.119Z,17.23
2019-04-20T10:27:26.476Z,17.28
2019-04-20T10:30:30.662Z,17.23
2019-04-20T10:33:35.517Z,17.16
2019-04-20T10:37:05.817Z,17.41
2019-04-20T10:40:11.488Z,17.55
2019-04-20T10:43:16.900Z,17.45
2019-04-20T10:46:20.936Z,17.81
2019-04-20T10:49:25.025Z,17.62
2019-04-20T10:52:29.779Z,17.51
2019-04-20T10:55:33.849Z,17.56
2019-04-20T10:58:37.915Z,17.39
2019-04-20T11:01:41.871Z,17.72
2019-04-20T11:04:46.485Z,17.64
2019-04-20T11:07:50.645Z,17.69
2019-04-20T11:11:05.143Z,17.76
2019-04-20T11:14:11.550Z,17.64
2019-04-20T11:17:06.684Z,17.68
2019-04-20T11:20:15.101Z,17.68
2019-04-20T11:23:20.349Z,17.87
2019-04-20T11:26:24.480Z,17.73
2019-04-20T11:29:28.541Z,17.81
2019-04-20T11:32:33.811Z,17.91
2019-04-20T11:35:41.445Z,17.81
2019-04-20T11:38:44.629Z,17.99
2019-04-20T11:41:49.779Z,18.06
2019-04-20T11:44:54.934Z,17.91
2019-04-20T11:47:58.979Z,17.86
2019-04-20T11:51:03.514Z,18.02
2019-04-20T11:54:08.245Z,17.95
2019-04-20T11:57:13.295Z,17.96
2019-04-20T12:00:23.530Z,18.05
2019-04-20T12:03:35.272Z,18.02
2019-04-20T12:06:32.872Z,18.06
2019-04-20T12:09:37.694Z,18.07
2019-04-20T12:12:46.695Z,17.98
2019-04-20T12:15:47.669Z,18.19
2019-04-20T12:18:52.509Z,18.07
2019-04-20T12:21:57.733Z,18.05
2019-04-20T12:25:02.555Z,18.24
2019-04-20T12:28:07.459Z,18.23
2019-04-20T12:31:16.687Z,17.99
2019-04-20T12:34:18.143Z,18.15
2019-04-20T12:37:22.921Z,18.09
2019-04-20T12:40:28.123Z,18.26
2019-04-20T12:43:32.135Z,18.09
2019-04-20T12:46:36.092Z,18.25
2019-04-20T12:49:41.133Z,18.16
2019-04-20T12:52:46.247Z,18.08
2019-04-20T12:55:50.744Z,18.07
2019-04-20T12:58:55.777Z,17.90
2019-04-20T13:01:59.904Z,17.91
2019-04-20T13:05:04.179Z,18.20
2019-04-20T13:08:09.529Z,18.26
2019-04-20T13:11:49.428Z,18.15
2019-04-20T13:15:20.290Z,18.03
2019-04-20T13:18:30.225Z,18.08
2019-04-20T13:21:34.833Z,18.36
2019-04-20T13:24:39.196Z,18.06
2019-04-20T13:27:50.509Z,18.29
2019-04-20T13:30:57.860Z,18.12
2019-04-20T13:34:03.472Z,18.16
2019-04-20T13:37:08.481Z,18.01
2019-04-20T13:40:13.223Z,18.16
2019-04-20T13:43:19.713Z,18.21
2019-04-20T13:46:26.879Z,18.24
2019-04-20T13:49:31.475Z,18.19
2019-04-20T13:52:36.495Z,18.20
2019-04-20T13:55:40.840Z,18.22
2019-04-20T13:58:59.785Z,18.23
2019-04-20T14:02:22.684Z,18.54
2019-04-20T14:05:34.961Z,18.28
2019-04-20T14:08:49.448Z,18.38
2019-04-20T14:12:13.176Z,18.53
2019-04-20T14:15:08.988Z,18.57
2019-04-20T14:18:15.205Z,18.34
2019-04-20T14:21:20.856Z,18.37
2019-04-20T14:24:55.180Z,18.44
2019-04-20T14:52:13.603Z,18.91
2019-04-20T15:00:39.502Z,18.87
2019-04-20T15:05:01.319Z,19.17
2019-04-20T15:08:14.177Z,19.13
2019-04-20T15:11:30.552Z,19.49
2019-04-20T15:18:21.880Z,19.41
2019-04-20T15:21:27.200Z,19.76
2019-04-20T15:24:33.542Z,19.29
2019-04-20T15:27:42.201Z,19.34
2019-04-20T15:30:44.495Z,19.57
2019-04-20T15:33:48.845Z,19.62
2019-04-20T15:36:53.989Z,19.80
2019-04-20T15:39:59.066Z,19.95
2019-04-20T15:43:21.610Z,20.09
2019-04-20T15:47:46.334Z,20.53
2019-04-20T15:52:05.910Z,20.97
2019-04-20T16:15:13.568Z,21.93
2019-04-20T16:18:23.007Z,21.69
2019-04-20T16:21:31.268Z,21.67
2019-04-20T16:24:37.510Z,21.33
2019-04-20T16:27:41.679Z,20.60
2019-04-20T16:30:54.156Z,19.82
2019-04-20T16:34:09.859Z,19.19
2019-04-20T16:37:14.781Z,18.63
2019-04-20T16:40:19.918Z,18.26
2019-04-20T16:43:29.849Z,18.77
2019-04-20T16:46:30.125Z,18.30
2019-04-20T16:49:34.885Z,17.88
2019-04-20T16:52:39.037Z,17.86
2019-04-20T16:55:43.074Z,17.76
2019-04-20T16:58:48.195Z,17.73
2019-04-20T17:01:53.909Z,17.76
2019-04-20T17:04:58.903Z,17.69
2019-04-20T17:08:03.115Z,17.37
2019-04-20T17:11:07.770Z,17.21
2019-04-20T17:14:12.743Z,16.97
2019-04-20T17:17:17.764Z,16.88
2019-04-20T17:20:24.906Z,16.74
2019-04-20T17:23:27.730Z,16.72
2019-04-20T17:26:38.983Z,16.72
2019-04-20T17:30:01.166Z,16.66
2019-04-20T17:33:08.289Z,16.47
2019-04-20T17:36:20.826Z,16.28
2019-04-20T17:39:27.746Z,16.36
2019-04-20T17:42:43.888Z,16.38
2019-04-20T17:45:41.661Z,16.15
2019-04-20T17:48:45.317Z,15.85
2019-04-20T17:52:07.281Z,15.72
2019-04-20T17:54:51.577Z,15.52
2019-04-20T17:57:55.682Z,15.33
2019-04-20T18:01:28.285Z,15.19
2019-04-20T18:04:53.816Z,15.17
2019-04-20T18:07:52.381Z,14.96
2019-04-20T18:10:53.011Z,14.87
2019-04-20T18:13:46.744Z,14.78
2019-04-20T18:17:15.041Z,14.70
2019-04-20T18:20:14.806Z,14.60
2019-04-20T18:23:25.573Z,14.48
2019-04-20T18:26:45.555Z,14.39
2019-04-20T18:29:45.513Z,14.27
2019-04-20T18:32:37.776Z,14.16
2019-04-20T18:35:46.006Z,14.07
2019-04-20T18:38:54.277Z,14.03
2019-04-20T18:42:01.176Z,14.07
2019-04-20T18:45:20.344Z,13.92
2019-04-20T18:48:24.577Z,13.84
2019-04-20T18:51:12.083Z,13.72
2019-04-20T18:54:22.186Z,13.58
2019-04-20T18:57:27.248Z,13.35
2019-04-20T19:00:31.566Z,13.15
2019-04-20T19:03:40.344Z,13.08
2019-04-20T19:06:39.771Z,12.96
2019-04-20T19:09:44.896Z,12.87
2019-04-20T19:13:00.931Z,12.69
2019-04-20T19:16:25.467Z,12.60
2019-04-20T19:19:34.244Z,12.46
2019-04-20T19:22:32.194Z,12.38
2019-04-20T19:25:39.330Z,12.29
2019-04-20T19:28:48.065Z,12.18
2019-04-20T19:32:08.646Z,12.11
2019-04-20T19:35:03.867Z,11.97
2019-04-20T19:38:09.825Z,11.75
2019-04-20T19:41:20.688Z,11.65
2019-04-20T19:44:21.224Z,11.59
2019-04-20T19:47:37.058Z,11.43
2019-04-20T19:50:52.819Z,11.34
2019-04-20T19:53:48.713Z,11.27
2019-04-20T19:56:48.610Z,11.33
2019-04-20T19:59:45.785Z,11.37
2019-04-20T20:02:45.732Z,11.33
2019-04-20T20:05:52.351Z,11.19
2019-04-20T20:09:00.558Z,11.09
2019-04-20T20:12:04.983Z,10.93
2019-04-20T20:15:15.855Z,10.83
2019-04-20T20:18:30.880Z,10.66
2019-04-20T20:21:27.250Z,10.55
2019-04-20T20:24:25.171Z,10.43
2019-04-20T20:27:39.397Z,10.36
2019-04-20T20:30:49.732Z,10.25
2019-04-20T20:33:55.915Z,10.03
2019-04-20T20:36:57.146Z,9.94
2019-04-20T20:39:56.985Z,9.83
2019-04-20T20:43:09.711Z,9.78
2019-04-20T20:46:16.293Z,9.68
2019-04-20T20:49:28.973Z,9.56
2019-04-20T20:52:31.531Z,9.50
2019-04-20T20:55:32.176Z,9.50
2019-04-20T20:58:36.207Z,9.42
2019-04-20T21:01:44.027Z,9.36
2019-04-20T21:04:40.036Z,9.30
2019-04-20T21:07:44.807Z,9.19
2019-04-20T21:10:50.955Z,9.13
2019-04-20T21:13:56.306Z,9.08
2019-04-20T21:17:09.789Z,9.02
2019-04-20T21:20:20.436Z,8.93
2019-04-20T21:23:28.452Z,8.81
2019-04-20T21:26:27.089Z,8.75
2019-04-20T21:29:29.965Z,8.73
2019-04-20T21:32:41.758Z,8.65
2019-04-20T21:35:48.236Z,8.58
2019-04-20T21:38:48.647Z,8.50
2019-04-20T21:42:01.482Z,8.38
2019-04-20T21:45:08.130Z,8.28
2019-04-20T21:48:11.491Z,8.18
2019-04-20T21:51:27.536Z,8.09
2019-04-20T21:54:18.251Z,8.03
2019-04-20T21:57:22.479Z,8.00
2019-04-20T22:00:47.364Z,7.90
2019-04-20T22:03:50.359Z,7.81
2019-04-20T22:06:56.119Z,7.79
2019-04-20T22:10:02.261Z,7.70
2019-04-20T22:13:07.825Z,7.63
2019-04-20T22:16:13.191Z,7.56
2019-04-20T22:19:33.198Z,7.51
2019-04-20T22:22:44.170Z,7.41
2019-04-20T22:25:50.526Z,7.37
2019-04-20T22:28:36.277Z,7.32
2019-04-20T22:31:40.352Z,7.24
2019-04-20T22:34:47.538Z,7.21
2019-04-20T22:38:01.140Z,7.19
2019-04-20T22:41:11.049Z,7.16
2019-04-20T22:44:13.636Z,7.08
2019-04-20T22:47:22.634Z,6.97
2019-04-20T22:50:33.624Z,6.89
2019-04-20T22:53:42.797Z,6.82
2019-04-20T22:56:46.966Z,6.70
2019-04-20T22:59:45.348Z,6.63
2019-04-20T23:02:42.953Z,6.60
2019-04-20T23:05:47.115Z,6.52
2019-04-20T23:08:57.560Z,6.40
2019-04-20T23:12:06.070Z,6.37
2019-04-20T23:15:02.854Z,6.43
2019-04-20T23:18:08.331Z,6.40
2019-04-20T23:21:15.728Z,6.40
2019-04-20T23:24:18.870Z,6.35
2019-04-20T23:27:28.904Z,6.24
2019-04-20T23:30:33.962Z,6.18
2019-04-20T23:33:36.081Z,6.18
2019-04-20T23:36:45.390Z,6.23
2019-04-20T23:39:49.139Z,6.23
2019-04-20T23:43:24.477Z,6.18
2019-04-20T23:46:31.622Z,6.11
2019-04-20T23:49:54.191Z,6.08
2019-04-20T23:53:05.349Z,6.01
2019-04-20T23:55:49.848Z,5.92
2019-04-20T23:58:56.521Z,5.86
